Edisongracht — PDUJ — position and weather

sailwx.info

Track history (hours):
 
Tides and Currents Weather Stations Pressure Air Temp Water Temp Dewpoint Dewpoint Depression Visibility Wind Speed Wind Dir Waves Ship Positions

Edisongracht

Last reported at 2016-Jan-25 19:33 UTC. Time now 2016-Feb-06 13:29 UTC.
Position N 26°38' W 079°49'.
Warning: this ship's position is 11 days out of date.

Length 136 m; beam 19 m; draft 9 m.

Type: Cargo ship. MMSI: 244262000.

Date/timePositionNaut miles runAvg speedWind from/ knotsBaromVisibWave heightAir tempDewpointWater temp
2016-Jan-25 19:33N 26°38' W 079°49'1616.2
2016-Jan-25 18:33N 26°23' W 079°52'1515.2
2016-Jan-25 17:33N 26°09' W 080°01'4 4.0
2016-Jan-25 16:33N 26°07' W 080°04'0 0.0
2016-Jan-25 15:33N 26°07' W 080°04'0 0.0
2016-Jan-25 14:33N 26°07' W 080°04'0 0.0
2016-Jan-25 13:33N 26°07' W 080°04'0 0.0
2016-Jan-25 12:33N 26°07' W 080°04'0 0.0
2016-Jan-25 11:33N 26°07' W 080°04'0 0.0
2016-Jan-25 10:33N 26°07' W 080°04'0 0.0
2016-Jan-25 09:33N 26°07' W 080°04'0 0.0
2016-Jan-25 08:33N 26°07' W 080°04'0 0.0
2016-Jan-25 07:33N 26°07' W 080°04'0 0.0
2016-Jan-25 06:33N 26°07' W 080°04'0 0.0
2016-Jan-25 05:24N 26°07' W 080°04'0 0.0
2016-Jan-25 04:24N 26°07' W 080°04'0 0.0
2016-Jan-25 03:24N 26°07' W 080°04'0 0.0
2016-Jan-25 02:27N 26°07' W 080°04'2 2.0
2016-Jan-25 01:34N 26°06' W 080°06'2 1.5
2016-Jan-25 00:29N 26°05' W 080°07'0 0.0
2016-Jan-24 23:29N 26°05' W 080°07'0 0.0
2016-Jan-24 22:29N 26°05' W 080°07'0 0.0
2016-Jan-24 21:29N 26°05' W 080°07'0 0.0
2016-Jan-24 20:32N 26°05' W 080°07'0 0.0
2016-Jan-24 19:32N 26°05' W 080°07'0 0.0
2016-Jan-24 18:32N 26°05' W 080°07'0 0.0
2016-Jan-24 17:29N 26°05' W 080°07'0 0.0
2016-Jan-24 16:32N 26°05' W 080°07'0 0.0
2016-Jan-24 15:32N 26°05' W 080°07'0 0.0
2016-Jan-24 14:32N 26°05' W 080°07'0 0.0
2016-Jan-24 13:32N 26°05' W 080°07'0 0.0
2016-Jan-24 12:32N 26°05' W 080°07'0 0.0
2016-Jan-24 11:32N 26°05' W 080°07'0 0.0
2016-Jan-24 10:32N 26°05' W 080°07'0 0.0
2016-Jan-24 09:32N 26°05' W 080°07'0 0.0
2016-Jan-24 08:32N 26°05' W 080°07'0 0.0
2016-Jan-24 07:31N 26°05' W 080°07'0 0.0
2016-Jan-24 06:31N 26°05' W 080°07'0 0.0
2016-Jan-24 05:31N 26°05' W 080°07'0 0.0
2016-Jan-24 04:31N 26°05' W 080°07'0 0.0
2016-Jan-24 03:22N 26°05' W 080°07'0 0.0
2016-Jan-24 02:22N 26°05' W 080°07'0 0.0
2016-Jan-24 01:22N 26°05' W 080°07'0 0.0
2016-Jan-24 00:22N 26°05' W 080°07'0 0.0
2016-Jan-23 23:25N 26°05' W 080°07'0 0.0
2016-Jan-23 22:25N 26°05' W 080°07'0 0.0
2016-Jan-23 21:25N 26°05' W 080°07'0 0.0
2016-Jan-23 20:25N 26°05' W 080°07'0 0.0
2016-Jan-23 19:25N 26°05' W 080°07'0 0.0
2016-Jan-23 18:25N 26°05' W 080°07'0 0.0
2016-Jan-23 17:25N 26°05' W 080°07'0 0.0
2016-Jan-23 16:28N 26°05' W 080°07'0 0.0
2016-Jan-23 15:28N 26°05' W 080°07'0 0.0
2016-Jan-23 14:28N 26°05' W 080°07'0 0.0
2016-Jan-23 13:28N 26°05' W 080°07'0 0.0
2016-Jan-23 12:28N 26°05' W 080°07'0 0.0
2016-Jan-23 11:28N 26°05' W 080°07'0 0.0
2016-Jan-23 10:28N 26°05' W 080°07'0 0.0
2016-Jan-23 09:28N 26°05' W 080°07'0 0.0
2016-Jan-23 08:31N 26°05' W 080°07'0 0.0
2016-Jan-23 07:31N 26°05' W 080°07'0 0.0
2016-Jan-23 06:30N 26°05' W 080°07'0 0.0
2016-Jan-23 05:30N 26°05' W 080°07'0 0.0
2016-Jan-23 04:30N 26°05' W 080°07'0 0.0
2016-Jan-23 03:30N 26°05' W 080°07'0 0.0
2016-Jan-23 02:30N 26°05' W 080°07'0 0.1
2016-Jan-23 01:33N 26°05' W 080°07'4 4.5
2016-Jan-23 00:33N 26°06' W 080°02'1 1.3
2016-Jan-22 23:33N 26°05' W 080°01'0 0.1
2016-Jan-22 22:33N 26°05' W 080°01'2 1.8
2016-Jan-22 21:33N 26°06' W 079°59'1010.3
2016-Jan-22 20:33N 26°07' W 079°48'9 9.2
2016-Jan-22 19:33N 26°08' W 079°38'8 8.5
2016-Jan-22 18:33N 26°09' W 079°28'8 7.9
2016-Jan-22 17:32N 26°10' W 079°19'  
2016-Jan-19 02:33N 17°39' W 062°19'1413.8
2016-Jan-19 01:34N 17°28' W 062°10'1413.8
2016-Jan-19 00:33N 17°17' W 062°01'1312.9
2016-Jan-18 23:33N 17°08' W 061°52'1 0.6
2016-Jan-18 22:32N 17°08' W 061°51'0 0.0
2016-Jan-18 21:32N 17°08' W 061°51'0 0.0
2016-Jan-18 20:32N 17°08' W 061°51'0 0.0
2016-Jan-18 19:32N 17°08' W 061°51'0 0.0
2016-Jan-18 18:32N 17°08' W 061°51'0 0.0
2016-Jan-18 17:32N 17°08' W 061°51'0 0.0
2016-Jan-18 16:32N 17°08' W 061°51'0 0.0
2016-Jan-18 15:32N 17°08' W 061°51'0 0.0
2016-Jan-18 14:32N 17°08' W 061°51'0 0.0
2016-Jan-18 13:32N 17°08' W 061°51'0 0.0
2016-Jan-18 12:32N 17°08' W 061°51'0 0.0
2016-Jan-18 11:29N 17°08' W 061°51'0 0.1
2016-Jan-18 10:33N 17°07' W 061°51'6 6.0
2016-Jan-18 09:33N 17°11' W 061°56'7 7.0
2016-Jan-18 08:33N 17°15' W 061°50'8 8.2
2016-Jan-18 07:34N 17°18' W 061°42'8 8.3
2016-Jan-18 06:33N 17°20' W 061°34'8 8.2
2016-Jan-18 05:34N 17°24' W 061°26'9 8.5
2016-Jan-18 04:33N 17°27' W 061°18'9 8.8
2016-Jan-18 03:31N 17°30' W 061°09'  
Track history (hours):
 
Tides and Currents Weather Stations Pressure Air Temp Water Temp Dewpoint Dewpoint Depression Visibility Wind Speed Wind Dir Waves Ship Positions

Edisongracht

Last reported at 2016-Jan-25 19:33 UTC. Time now 2016-Feb-06 13:29 UTC.
Position N 26°38' W 079°49'.
Warning: this ship's position is 11 days out of date.

Length 136 m; beam 19 m; draft 9 m.

Type: Cargo ship. MMSI: 244262000.

Date/timePositionNaut miles runAvg speedWind from/ knotsBaromVisibWave heightAir tempDewpointWater temp
2016-Jan-25 19:33N 26°38' W 079°49'1616.2
2016-Jan-25 18:33N 26°23' W 079°52'1515.2
2016-Jan-25 17:33N 26°09' W 080°01'4 4.0
2016-Jan-25 16:33N 26°07' W 080°04'0 0.0
2016-Jan-25 15:33N 26°07' W 080°04'0 0.0
2016-Jan-25 14:33N 26°07' W 080°04'0 0.0
2016-Jan-25 13:33N 26°07' W 080°04'0 0.0
2016-Jan-25 12:33N 26°07' W 080°04'0 0.0
2016-Jan-25 11:33N 26°07' W 080°04'0 0.0
2016-Jan-25 10:33N 26°07' W 080°04'0 0.0
2016-Jan-25 09:33N 26°07' W 080°04'0 0.0
2016-Jan-25 08:33N 26°07' W 080°04'0 0.0
2016-Jan-25 07:33N 26°07' W 080°04'0 0.0
2016-Jan-25 06:33N 26°07' W 080°04'0 0.0
2016-Jan-25 05:24N 26°07' W 080°04'0 0.0
2016-Jan-25 04:24N 26°07' W 080°04'0 0.0
2016-Jan-25 03:24N 26°07' W 080°04'0 0.0
2016-Jan-25 02:27N 26°07' W 080°04'2 2.0
2016-Jan-25 01:34N 26°06' W 080°06'2 1.5
2016-Jan-25 00:29N 26°05' W 080°07'0 0.0
2016-Jan-24 23:29N 26°05' W 080°07'0 0.0
2016-Jan-24 22:29N 26°05' W 080°07'0 0.0
2016-Jan-24 21:29N 26°05' W 080°07'0 0.0
2016-Jan-24 20:32N 26°05' W 080°07'0 0.0
2016-Jan-24 19:32N 26°05' W 080°07'0 0.0
2016-Jan-24 18:32N 26°05' W 080°07'0 0.0
2016-Jan-24 17:29N 26°05' W 080°07'0 0.0
2016-Jan-24 16:32N 26°05' W 080°07'0 0.0
2016-Jan-24 15:32N 26°05' W 080°07'0 0.0
2016-Jan-24 14:32N 26°05' W 080°07'0 0.0
2016-Jan-24 13:32N 26°05' W 080°07'0 0.0
2016-Jan-24 12:32N 26°05' W 080°07'0 0.0
2016-Jan-24 11:32N 26°05' W 080°07'0 0.0
2016-Jan-24 10:32N 26°05' W 080°07'0 0.0
2016-Jan-24 09:32N 26°05' W 080°07'0 0.0
2016-Jan-24 08:32N 26°05' W 080°07'0 0.0
2016-Jan-24 07:31N 26°05' W 080°07'0 0.0
2016-Jan-24 06:31N 26°05' W 080°07'0 0.0
2016-Jan-24 05:31N 26°05' W 080°07'0 0.0
2016-Jan-24 04:31N 26°05' W 080°07'0 0.0
2016-Jan-24 03:22N 26°05' W 080°07'0 0.0
2016-Jan-24 02:22N 26°05' W 080°07'0 0.0
2016-Jan-24 01:22N 26°05' W 080°07'0 0.0
2016-Jan-24 00:22N 26°05' W 080°07'0 0.0
2016-Jan-23 23:25N 26°05' W 080°07'0 0.0
2016-Jan-23 22:25N 26°05' W 080°07'0 0.0
2016-Jan-23 21:25N 26°05' W 080°07'0 0.0
2016-Jan-23 20:25N 26°05' W 080°07'0 0.0
2016-Jan-23 19:25N 26°05' W 080°07'0 0.0
2016-Jan-23 18:25N 26°05' W 080°07'0 0.0
2016-Jan-23 17:25N 26°05' W 080°07'0 0.0
2016-Jan-23 16:28N 26°05' W 080°07'0 0.0
2016-Jan-23 15:28N 26°05' W 080°07'0 0.0
2016-Jan-23 14:28N 26°05' W 080°07'0 0.0
2016-Jan-23 13:28N 26°05' W 080°07'0 0.0
2016-Jan-23 12:28N 26°05' W 080°07'0 0.0
2016-Jan-23 11:28N 26°05' W 080°07'0 0.0
2016-Jan-23 10:28N 26°05' W 080°07'0 0.0
2016-Jan-23 09:28N 26°05' W 080°07'0 0.0
2016-Jan-23 08:31N 26°05' W 080°07'0 0.0
2016-Jan-23 07:31N 26°05' W 080°07'0 0.0
2016-Jan-23 06:30N 26°05' W 080°07'0 0.0
2016-Jan-23 05:30N 26°05' W 080°07'0 0.0
2016-Jan-23 04:30N 26°05' W 080°07'0 0.0
2016-Jan-23 03:30N 26°05' W 080°07'0 0.0
2016-Jan-23 02:30N 26°05' W 080°07'0 0.1
2016-Jan-23 01:33N 26°05' W 080°07'4 4.5
2016-Jan-23 00:33N 26°06' W 080°02'1 1.3
2016-Jan-22 23:33N 26°05' W 080°01'0 0.1
2016-Jan-22 22:33N 26°05' W 080°01'2 1.8
2016-Jan-22 21:33N 26°06' W 079°59'1010.3
2016-Jan-22 20:33N 26°07' W 079°48'9 9.2
2016-Jan-22 19:33N 26°08' W 079°38'8 8.5
2016-Jan-22 18:33N 26°09' W 079°28'8 7.9
2016-Jan-22 17:32N 26°10' W 079°19'  
2016-Jan-19 02:33N 17°39' W 062°19'1413.8
2016-Jan-19 01:34N 17°28' W 062°10'1413.8
2016-Jan-19 00:33N 17°17' W 062°01'1312.9
2016-Jan-18 23:33N 17°08' W 061°52'1 0.6
2016-Jan-18 22:32N 17°08' W 061°51'0 0.0
2016-Jan-18 21:32N 17°08' W 061°51'0 0.0
2016-Jan-18 20:32N 17°08' W 061°51'0 0.0
2016-Jan-18 19:32N 17°08' W 061°51'0 0.0
2016-Jan-18 18:32N 17°08' W 061°51'0 0.0
2016-Jan-18 17:32N 17°08' W 061°51'0 0.0
2016-Jan-18 16:32N 17°08' W 061°51'0 0.0
2016-Jan-18 15:32N 17°08' W 061°51'0 0.0
2016-Jan-18 14:32N 17°08' W 061°51'0 0.0
2016-Jan-18 13:32N 17°08' W 061°51'0 0.0
2016-Jan-18 12:32N 17°08' W 061°51'0 0.0
2016-Jan-18 11:29N 17°08' W 061°51'0 0.1
2016-Jan-18 10:33N 17°07' W 061°51'6 6.0
2016-Jan-18 09:33N 17°11' W 061°56'7 7.0
2016-Jan-18 08:33N 17°15' W 061°50'8 8.2
2016-Jan-18 07:34N 17°18' W 061°42'8 8.3
2016-Jan-18 06:33N 17°20' W 061°34'8 8.2
2016-Jan-18 05:34N 17°24' W 061°26'9 8.5
2016-Jan-18 04:33N 17°27' W 061°18'9 8.8
2016-Jan-18 03:31N 17°30' W 061°09'  

Dump ship's entire track history